sensor_id;sensor_type;location;lat;lon;timestamp;pressure;altitude;pressure_sealevel;temperature;humidity
62632;BME280;48703;51.248;-0.546;2023-05-23T00:00:56;101879;;;11.73;61.23
62632;BME280;48703;51.248;-0.546;2023-05-23T00:03:58;101878;;;11.70;62.00
62632;BME280;48703;51.248;-0.546;2023-05-23T00:07:00;101872;;;11.69;61.82
62632;BME280;48703;51.248;-0.546;2023-05-23T00:10:02;101870;;;11.66;62.64
62632;BME280;48703;51.248;-0.546;2023-05-23T00:13:04;101866;;;11.63;62.63
62632;BME280;48703;51.248;-0.546;2023-05-23T00:16:06;101862;;;11.58;64.42
62632;BME280;48703;51.248;-0.546;2023-05-23T00:19:08;101860;;;11.53;63.57
62632;BME280;48703;51.248;-0.546;2023-05-23T00:22:10;101860;;;11.51;64.20
62632;BME280;48703;51.248;-0.546;2023-05-23T00:25:11;101862;;;11.45;64.63
62632;BME280;48703;51.248;-0.546;2023-05-23T00:28:13;101863;;;11.40;65.11
62632;BME280;48703;51.248;-0.546;2023-05-23T00:31:15;101866;;;11.36;64.75
62632;BME280;48703;51.248;-0.546;2023-05-23T00:34:17;101863;;;11.33;66.21
62632;BME280;48703;51.248;-0.546;2023-05-23T00:37:19;101863;;;11.27;65.92
62632;BME280;48703;51.248;-0.546;2023-05-23T00:40:21;101863;;;11.24;66.22
62632;BME280;48703;51.248;-0.546;2023-05-23T00:43:23;101861;;;11.19;67.55
62632;BME280;48703;51.248;-0.546;2023-05-23T00:46:24;101860;;;11.13;67.69
62632;BME280;48703;51.248;-0.546;2023-05-23T00:49:26;101857;;;11.07;68.36
62632;BME280;48703;51.248;-0.546;2023-05-23T00:52:28;101859;;;11.03;67.66
62632;BME280;48703;51.248;-0.546;2023-05-23T00:55:30;101859;;;10.99;67.84
62632;BME280;48703;51.248;-0.546;2023-05-23T00:58:32;101853;;;10.98;68.18
62632;BME280;48703;51.248;-0.546;2023-05-23T01:01:34;101861;;;10.93;69.46
62632;BME280;48703;51.248;-0.546;2023-05-23T01:04:36;101862;;;10.88;69.47
62632;BME280;48703;51.248;-0.546;2023-05-23T01:07:38;101857;;;10.86;70.37
62632;BME280;48703;51.248;-0.546;2023-05-23T01:10:39;101854;;;10.79;71.00
62632;BME280;48703;51.248;-0.546;2023-05-23T01:13:42;101859;;;10.78;70.13
62632;BME280;48703;51.248;-0.546;2023-05-23T01:16:45;101858;;;10.76;70.65
62632;BME280;48703;51.248;-0.546;2023-05-23T01:19:48;101856;;;10.72;71.21
62632;BME280;48703;51.248;-0.546;2023-05-23T01:23:09;101858;;;10.70;70.17
62632;BME280;48703;51.248;-0.546;2023-05-23T01:25:55;101855;;;10.65;70.48
62632;BME280;48703;51.248;-0.546;2023-05-23T01:28:53;101851;;;10.64;70.79
62632;BME280;48703;51.248;-0.546;2023-05-23T01:31:53;101857;;;10.62;71.29
62632;BME280;48703;51.248;-0.546;2023-05-23T01:34:54;101863;;;10.56;71.22
62632;BME280;48703;51.248;-0.546;2023-05-23T01:37:56;101866;;;10.53;70.80
62632;BME280;48703;51.248;-0.546;2023-05-23T01:40:58;101865;;;10.53;71.10
62632;BME280;48703;51.248;-0.546;2023-05-23T01:44:00;101867;;;10.50;71.67
62632;BME280;48703;51.248;-0.546;2023-05-23T01:47:02;101870;;;10.46;71.28
62632;BME280;48703;51.248;-0.546;2023-05-23T01:50:04;101872;;;10.45;72.07
62632;BME280;48703;51.248;-0.546;2023-05-23T01:53:06;101877;;;10.43;72.35
62632;BME280;48703;51.248;-0.546;2023-05-23T01:56:07;101878;;;10.42;73.15
62632;BME280;48703;51.248;-0.546;2023-05-23T01:59:09;101879;;;10.42;71.83
62632;BME280;48703;51.248;-0.546;2023-05-23T02:02:11;101879;;;10.41;71.57
62632;BME280;48703;51.248;-0.546;2023-05-23T02:05:13;101883;;;10.39;72.12
62632;BME280;48703;51.248;-0.546;2023-05-23T02:08:15;101886;;;10.37;72.13
62632;BME280;48703;51.248;-0.546;2023-05-23T02:11:17;101893;;;10.33;72.29
62632;BME280;48703;51.248;-0.546;2023-05-23T02:14:19;101897;;;10.31;72.66
62632;BME280;48703;51.248;-0.546;2023-05-23T02:17:20;101903;;;10.26;73.81
62632;BME280;48703;51.248;-0.546;2023-05-23T02:20:22;101903;;;10.20;73.64
62632;BME280;48703;51.248;-0.546;2023-05-23T02:23:24;101906;;;10.18;73.47
62632;BME280;48703;51.248;-0.546;2023-05-23T02:26:26;101902;;;10.14;73.86
62632;BME280;48703;51.248;-0.546;2023-05-23T02:29:28;101905;;;10.08;74.87
62632;BME280;48703;51.248;-0.546;2023-05-23T02:32:30;101906;;;10.04;74.64
62632;BME280;48703;51.248;-0.546;2023-05-23T02:35:32;101911;;;9.99;74.59
62632;BME280;48703;51.248;-0.546;2023-05-23T02:38:33;101913;;;9.99;74.64
62632;BME280;48703;51.248;-0.546;2023-05-23T02:41:35;101916;;;9.95;74.61
62632;BME280;48703;51.248;-0.546;2023-05-23T02:44:37;101919;;;9.92;74.38
62632;BME280;48703;51.248;-0.546;2023-05-23T02:47:39;101922;;;9.87;74.90
62632;BME280;48703;51.248;-0.546;2023-05-23T02:50:41;101922;;;9.87;74.55
62632;BME280;48703;51.248;-0.546;2023-05-23T02:53:43;101922;;;9.84;75.01
62632;BME280;48703;51.248;-0.546;2023-05-23T02:56:45;101922;;;9.83;75.70
62632;BME280;48703;51.248;-0.546;2023-05-23T02:59:46;101924;;;9.78;75.99
62632;BME280;48703;51.248;-0.546;2023-05-23T03:02:48;101922;;;9.75;76.33
62632;BME280;48703;51.248;-0.546;2023-05-23T03:05:50;101921;;;9.70;76.52
62632;BME280;48703;51.248;-0.546;2023-05-23T03:08:52;101917;;;9.67;76.59
62632;BME280;48703;51.248;-0.546;2023-05-23T03:11:54;101916;;;9.63;77.24
62632;BME280;48703;51.248;-0.546;2023-05-23T03:14:56;101919;;;9.55;77.55
62632;BME280;48703;51.248;-0.546;2023-05-23T03:17:58;101919;;;9.52;77.04
62632;BME280;48703;51.248;-0.546;2023-05-23T03:21:00;101923;;;9.47;77.95
62632;BME280;48703;51.248;-0.546;2023-05-23T03:24:01;101923;;;9.44;77.61
62632;BME280;48703;51.248;-0.546;2023-05-23T03:27:03;101921;;;9.44;77.67
62632;BME280;48703;51.248;-0.546;2023-05-23T03:30:05;101919;;;9.40;78.21
62632;BME280;48703;51.248;-0.546;2023-05-23T03:33:07;101920;;;9.34;78.05
62632;BME280;48703;51.248;-0.546;2023-05-23T03:36:09;101917;;;9.35;77.88
62632;BME280;48703;51.248;-0.546;2023-05-23T03:39:11;101915;;;9.35;77.92
62632;BME280;48703;51.248;-0.546;2023-05-23T03:42:13;101919;;;9.34;77.97
62632;BME280;48703;51.248;-0.546;2023-05-23T03:45:15;101922;;;9.35;78.92
62632;BME280;48703;51.248;-0.546;2023-05-23T03:48:16;101923;;;9.38;79.57
62632;BME280;48703;51.248;-0.546;2023-05-23T03:51:18;101922;;;9.42;79.75
62632;BME280;48703;51.248;-0.546;2023-05-23T03:54:20;101928;;;9.45;80.88
62632;BME280;48703;51.248;-0.546;2023-05-23T03:57:22;101935;;;9.48;81.71
62632;BME280;48703;51.248;-0.546;2023-05-23T04:00:24;101938;;;9.50;81.52
62632;BME280;48703;51.248;-0.546;2023-05-23T04:03:26;101935;;;9.50;81.67
62632;BME280;48703;51.248;-0.546;2023-05-23T04:06:28;101937;;;9.50;81.62
62632;BME280;48703;51.248;-0.546;2023-05-23T04:09:30;101933;;;9.51;81.07
62632;BME280;48703;51.248;-0.546;2023-05-23T04:12:31;101933;;;9.50;81.13
62632;BME280;48703;51.248;-0.546;2023-05-23T04:15:33;101933;;;9.50;80.65
62632;BME280;48703;51.248;-0.546;2023-05-23T04:18:35;101931;;;9.48;81.36
62632;BME280;48703;51.248;-0.546;2023-05-23T04:21:37;101932;;;9.45;81.34
62632;BME280;48703;51.248;-0.546;2023-05-23T04:24:39;101932;;;9.45;81.53
62632;BME280;48703;51.248;-0.546;2023-05-23T04:27:41;101932;;;9.43;81.19
62632;BME280;48703;51.248;-0.546;2023-05-23T04:30:42;101933;;;9.41;82.28
62632;BME280;48703;51.248;-0.546;2023-05-23T04:33:44;101931;;;9.41;82.51
62632;BME280;48703;51.248;-0.546;2023-05-23T04:36:46;101937;;;9.37;82.35
62632;BME280;48703;51.248;-0.546;2023-05-23T04:39:48;101941;;;9.39;82.09
62632;BME280;48703;51.248;-0.546;2023-05-23T04:42:50;101942;;;9.41;82.32
62632;BME280;48703;51.248;-0.546;2023-05-23T04:45:52;101948;;;9.40;82.72
62632;BME280;48703;51.248;-0.546;2023-05-23T04:48:54;101948;;;9.40;82.74
62632;BME280;48703;51.248;-0.546;2023-05-23T04:51:56;101948;;;9.40;82.43
62632;BME280;48703;51.248;-0.546;2023-05-23T04:54:57;101949;;;9.38;83.38
62632;BME280;48703;51.248;-0.546;2023-05-23T04:57:59;101951;;;9.37;83.60
62632;BME280;48703;51.248;-0.546;2023-05-23T05:01:01;101952;;;9.39;83.45
62632;BME280;48703;51.248;-0.546;2023-05-23T05:04:03;101953;;;9.40;83.66
62632;BME280;48703;51.248;-0.546;2023-05-23T05:07:05;101957;;;9.41;84.17
62632;BME280;48703;51.248;-0.546;2023-05-23T05:10:07;101955;;;9.42;84.24
62632;BME280;48703;51.248;-0.546;2023-05-23T05:13:09;101957;;;9.42;85.37
62632;BME280;48703;51.248;-0.546;2023-05-23T05:16:10;101961;;;9.42;84.92
62632;BME280;48703;51.248;-0.546;2023-05-23T05:19:13;101966;;;9.47;84.68
62632;BME280;48703;51.248;-0.546;2023-05-23T05:22:14;101974;;;9.50;85.16
62632;BME280;48703;51.248;-0.546;2023-05-23T05:25:16;101976;;;9.53;84.97
62632;BME280;48703;51.248;-0.546;2023-05-23T05:28:18;101976;;;9.55;85.72
62632;BME280;48703;51.248;-0.546;2023-05-23T05:31:20;101981;;;9.58;85.06
62632;BME280;48703;51.248;-0.546;2023-05-23T05:34:22;101979;;;9.64;85.17
62632;BME280;48703;51.248;-0.546;2023-05-23T05:37:24;101980;;;9.67;85.54
62632;BME280;48703;51.248;-0.546;2023-05-23T05:40:25;101981;;;9.72;85.70
62632;BME280;48703;51.248;-0.546;2023-05-23T05:43:27;101983;;;9.77;85.17
62632;BME280;48703;51.248;-0.546;2023-05-23T05:46:29;101980;;;9.82;85.46
62632;BME280;48703;51.248;-0.546;2023-05-23T05:49:31;101975;;;9.86;84.82
62632;BME280;48703;51.248;-0.546;2023-05-23T05:52:33;101973;;;9.91;85.19
62632;BME280;48703;51.248;-0.546;2023-05-23T05:55:35;101969;;;9.96;85.33
62632;BME280;48703;51.248;-0.546;2023-05-23T05:58:37;101973;;;10.00;84.84
62632;BME280;48703;51.248;-0.546;2023-05-23T06:01:38;101976;;;10.04;85.09
62632;BME280;48703;51.248;-0.546;2023-05-23T06:04:40;101981;;;10.10;84.67
62632;BME280;48703;51.248;-0.546;2023-05-23T06:07:42;101985;;;10.18;84.71
62632;BME280;48703;51.248;-0.546;2023-05-23T06:10:44;101988;;;10.26;84.76
62632;BME280;48703;51.248;-0.546;2023-05-23T06:13:46;101997;;;10.33;83.76
62632;BME280;48703;51.248;-0.546;2023-05-23T06:16:48;102001;;;10.38;83.37
62632;BME280;48703;51.248;-0.546;2023-05-23T06:19:50;102002;;;10.44;83.13
62632;BME280;48703;51.248;-0.546;2023-05-23T06:22:52;102004;;;10.50;83.37
62632;BME280;48703;51.248;-0.546;2023-05-23T06:25:53;102007;;;10.60;82.97
62632;BME280;48703;51.248;-0.546;2023-05-23T06:28:55;102012;;;10.66;82.90
62632;BME280;48703;51.248;-0.546;2023-05-23T06:31:57;102010;;;10.73;82.21
62632;BME280;48703;51.248;-0.546;2023-05-23T06:34:59;102010;;;10.78;81.58
62632;BME280;48703;51.248;-0.546;2023-05-23T06:38:01;102002;;;10.85;81.36
62632;BME280;48703;51.248;-0.546;2023-05-23T06:41:03;102003;;;10.91;80.87
62632;BME280;48703;51.248;-0.546;2023-05-23T06:44:05;102007;;;10.95;80.90
62632;BME280;48703;51.248;-0.546;2023-05-23T06:47:06;102012;;;10.98;79.27
62632;BME280;48703;51.248;-0.546;2023-05-23T06:50:09;102009;;;11.03;79.44
62632;BME280;48703;51.248;-0.546;2023-05-23T06:53:10;102006;;;11.09;78.95
62632;BME280;48703;51.248;-0.546;2023-05-23T06:56:12;102001;;;11.20;79.36
62632;BME280;48703;51.248;-0.546;2023-05-23T06:59:14;101993;;;11.32;78.45
62632;BME280;48703;51.248;-0.546;2023-05-23T07:02:16;101988;;;11.42;78.41
62632;BME280;48703;51.248;-0.546;2023-05-23T07:05:18;101984;;;11.50;77.86
62632;BME280;48703;51.248;-0.546;2023-05-23T07:08:20;101984;;;11.56;77.66
62632;BME280;48703;51.248;-0.546;2023-05-23T07:11:21;101986;;;11.62;77.71
62632;BME280;48703;51.248;-0.546;2023-05-23T07:14:23;101987;;;11.65;76.44
62632;BME280;48703;51.248;-0.546;2023-05-23T07:17:25;101994;;;11.68;75.70
62632;BME280;48703;51.248;-0.546;2023-05-23T07:20:27;102003;;;11.70;75.39
62632;BME280;48703;51.248;-0.546;2023-05-23T07:23:31;102007;;;11.71;74.81
62632;BME280;48703;51.248;-0.546;2023-05-23T07:26:31;102008;;;11.75;75.03
62632;BME280;48703;51.248;-0.546;2023-05-23T07:29:33;102004;;;11.82;74.74
62632;BME280;48703;51.248;-0.546;2023-05-23T07:32:34;102004;;;11.89;74.88
62632;BME280;48703;51.248;-0.546;2023-05-23T07:35:36;102008;;;11.96;73.88
62632;BME280;48703;51.248;-0.546;2023-05-23T07:38:38;102009;;;12.05;73.95
62632;BME280;48703;51.248;-0.546;2023-05-23T07:41:40;102005;;;12.13;73.20
62632;BME280;48703;51.248;-0.546;2023-05-23T07:44:42;102002;;;12.19;73.24
62632;BME280;48703;51.248;-0.546;2023-05-23T07:47:44;102002;;;12.25;72.68
62632;BME280;48703;51.248;-0.546;2023-05-23T07:50:46;102001;;;12.32;72.04
62632;BME280;48703;51.248;-0.546;2023-05-23T07:53:48;102003;;;12.40;71.30
62632;BME280;48703;51.248;-0.546;2023-05-23T07:56:50;102001;;;12.48;71.04
62632;BME280;48703;51.248;-0.546;2023-05-23T07:59:52;102006;;;12.55;70.15
62632;BME280;48703;51.248;-0.546;2023-05-23T08:02:53;102009;;;12.62;69.71
62632;BME280;48703;51.248;-0.546;2023-05-23T08:05:55;102009;;;12.68;68.41
62632;BME280;48703;51.248;-0.546;2023-05-23T08:08:57;102011;;;12.74;69.31
62632;BME280;48703;51.248;-0.546;2023-05-23T08:11:59;102013;;;12.76;68.80
62632;BME280;48703;51.248;-0.546;2023-05-23T08:15:01;102017;;;12.79;67.72
62632;BME280;48703;51.248;-0.546;2023-05-23T08:18:03;102016;;;12.80;67.04
62632;BME280;48703;51.248;-0.546;2023-05-23T08:21:04;102016;;;12.81;66.77
62632;BME280;48703;51.248;-0.546;2023-05-23T08:24:06;102015;;;12.86;67.07
62632;BME280;48703;51.248;-0.546;2023-05-23T08:27:08;102014;;;12.91;66.12
62632;BME280;48703;51.248;-0.546;2023-05-23T08:30:10;102015;;;12.98;67.14
62632;BME280;48703;51.248;-0.546;2023-05-23T08:33:12;102016;;;13.11;66.38
62632;BME280;48703;51.248;-0.546;2023-05-23T08:36:14;102021;;;13.24;65.19
62632;BME280;48703;51.248;-0.546;2023-05-23T08:39:16;102017;;;13.36;64.11
62632;BME280;48703;51.248;-0.546;2023-05-23T08:42:17;102015;;;13.47;63.77
62632;BME280;48703;51.248;-0.546;2023-05-23T08:45:19;102014;;;13.57;62.45
62632;BME280;48703;51.248;-0.546;2023-05-23T08:48:21;102013;;;13.63;61.44
62632;BME280;48703;51.248;-0.546;2023-05-23T08:51:24;102015;;;13.66;61.52
62632;BME280;48703;51.248;-0.546;2023-05-23T08:54:25;102011;;;13.71;61.31
62632;BME280;48703;51.248;-0.546;2023-05-23T08:57:27;102008;;;13.76;60.88
62632;BME280;48703;51.248;-0.546;2023-05-23T09:00:29;102006;;;13.89;62.10
62632;BME280;48703;51.248;-0.546;2023-05-23T09:03:30;102005;;;14.04;61.95
62632;BME280;48703;51.248;-0.546;2023-05-23T09:06:33;102007;;;14.19;60.18
62632;BME280;48703;51.248;-0.546;2023-05-23T09:09:34;102008;;;14.30;61.19
62632;BME280;48703;51.248;-0.546;2023-05-23T09:12:36;102003;;;14.38;59.30
62632;BME280;48703;51.248;-0.546;2023-05-23T09:15:38;102004;;;14.41;57.13
62632;BME280;48703;51.248;-0.546;2023-05-23T09:18:40;102003;;;14.45;58.05
62632;BME280;48703;51.248;-0.546;2023-05-23T09:21:42;102004;;;14.52;58.57
62632;BME280;48703;51.248;-0.546;2023-05-23T09:24:44;102003;;;14.60;57.81
62632;BME280;48703;51.248;-0.546;2023-05-23T09:27:45;102000;;;14.61;57.61
62632;BME280;48703;51.248;-0.546;2023-05-23T09:30:47;102001;;;14.58;56.89
62632;BME280;48703;51.248;-0.546;2023-05-23T09:33:49;101998;;;14.57;56.77
62632;BME280;48703;51.248;-0.546;2023-05-23T09:36:53;102004;;;14.53;56.67
62632;BME280;48703;51.248;-0.546;2023-05-23T09:39:53;102004;;;14.53;57.59
62632;BME280;48703;51.248;-0.546;2023-05-23T09:42:55;102007;;;14.55;58.44
62632;BME280;48703;51.248;-0.546;2023-05-23T09:45:59;102007;;;14.61;58.29
62632;BME280;48703;51.248;-0.546;2023-05-23T09:48:58;102005;;;14.70;58.72
62632;BME280;48703;51.248;-0.546;2023-05-23T09:52:00;102014;;;14.81;57.48
62632;BME280;48703;51.248;-0.546;2023-05-23T09:55:02;102021;;;14.84;56.43
62632;BME280;48703;51.248;-0.546;2023-05-23T09:58:04;102028;;;14.86;56.96
62632;BME280;48703;51.248;-0.546;2023-05-23T10:01:06;102027;;;14.90;56.47
62632;BME280;48703;51.248;-0.546;2023-05-23T10:04:08;102024;;;14.90;55.57
62632;BME280;48703;51.248;-0.546;2023-05-23T10:07:12;102028;;;14.87;56.44
62632;BME280;48703;51.248;-0.546;2023-05-23T10:10:11;102034;;;14.84;56.65
62632;BME280;48703;51.248;-0.546;2023-05-23T10:13:13;102039;;;14.81;56.43
62632;BME280;48703;51.248;-0.546;2023-05-23T10:16:17;102042;;;14.82;55.37
62632;BME280;48703;51.248;-0.546;2023-05-23T10:19:19;102045;;;14.86;56.62
62632;BME280;48703;51.248;-0.546;2023-05-23T10:22:19;102039;;;14.93;56.21
62632;BME280;48703;51.248;-0.546;2023-05-23T10:25:21;102042;;;15.02;57.10
62632;BME280;48703;51.248;-0.546;2023-05-23T10:28:23;102044;;;15.13;56.28
62632;BME280;48703;51.248;-0.546;2023-05-23T10:31:25;102044;;;15.25;56.31
62632;BME280;48703;51.248;-0.546;2023-05-23T10:34:28;102034;;;15.33;54.17
62632;BME280;48703;51.248;-0.546;2023-05-23T10:37:30;102037;;;15.40;55.62
62632;BME280;48703;51.248;-0.546;2023-05-23T10:40:33;102039;;;15.55;55.44
62632;BME280;48703;51.248;-0.546;2023-05-23T10:43:35;102039;;;15.62;53.89
62632;BME280;48703;51.248;-0.546;2023-05-23T10:46:48;102030;;;15.72;53.14
62632;BME280;48703;51.248;-0.546;2023-05-23T10:49:36;102034;;;15.76;51.78
62632;BME280;48703;51.248;-0.546;2023-05-23T10:52:38;102031;;;15.81;51.53
62632;BME280;48703;51.248;-0.546;2023-05-23T10:55:39;102033;;;15.84;50.97
62632;BME280;48703;51.248;-0.546;2023-05-23T10:58:41;102032;;;15.87;51.72
62632;BME280;48703;51.248;-0.546;2023-05-23T11:01:43;102028;;;15.90;50.58
62632;BME280;48703;51.248;-0.546;2023-05-23T11:04:45;102031;;;16.00;52.30
62632;BME280;48703;51.248;-0.546;2023-05-23T11:08:05;102034;;;16.12;51.09
62632;BME280;48703;51.248;-0.546;2023-05-23T11:10:50;102034;;;16.19;50.68
62632;BME280;48703;51.248;-0.546;2023-05-23T11:13:55;102041;;;16.26;50.37
62632;BME280;48703;51.248;-0.546;2023-05-23T11:16:53;102042;;;16.37;50.79
62632;BME280;48703;51.248;-0.546;2023-05-23T11:19:55;102041;;;16.44;50.43
62632;BME280;48703;51.248;-0.546;2023-05-23T11:22:57;102043;;;16.51;50.33
62632;BME280;48703;51.248;-0.546;2023-05-23T11:25:58;102044;;;16.61;49.83
62632;BME280;48703;51.248;-0.546;2023-05-23T11:29:00;102043;;;16.66;49.34
62632;BME280;48703;51.248;-0.546;2023-05-23T11:32:08;102045;;;16.73;49.04
62632;BME280;48703;51.248;-0.546;2023-05-23T11:35:05;102047;;;16.82;49.46
62632;BME280;48703;51.248;-0.546;2023-05-23T11:38:06;102047;;;16.91;49.26
62632;BME280;48703;51.248;-0.546;2023-05-23T11:41:07;102046;;;16.94;48.11
62632;BME280;48703;51.248;-0.546;2023-05-23T11:44:10;102044;;;16.93;46.71
62632;BME280;48703;51.248;-0.546;2023-05-23T11:47:11;102042;;;16.94;47.77
62632;BME280;48703;51.248;-0.546;2023-05-23T11:50:13;102041;;;16.94;47.97
62632;BME280;48703;51.248;-0.546;2023-05-23T11:53:15;102041;;;16.93;46.77
62632;BME280;48703;51.248;-0.546;2023-05-23T11:56:17;102045;;;16.86;47.14
62632;BME280;48703;51.248;-0.546;2023-05-23T11:59:19;102041;;;16.82;47.41
62632;BME280;48703;51.248;-0.546;2023-05-23T12:02:21;102042;;;16.78;48.09
62632;BME280;48703;51.248;-0.546;2023-05-23T12:05:22;102045;;;16.77;47.76
62632;BME280;48703;51.248;-0.546;2023-05-23T12:08:24;102037;;;16.77;48.40
62632;BME280;48703;51.248;-0.546;2023-05-23T12:11:28;102038;;;16.78;47.52
62632;BME280;48703;51.248;-0.546;2023-05-23T12:14:28;102034;;;16.76;48.31
62632;BME280;48703;51.248;-0.546;2023-05-23T12:17:30;102037;;;16.82;47.52
62632;BME280;48703;51.248;-0.546;2023-05-23T12:20:32;102032;;;16.84;48.33
62632;BME280;48703;51.248;-0.546;2023-05-23T12:23:34;102030;;;16.89;48.92
62632;BME280;48703;51.248;-0.546;2023-05-23T12:26:44;102026;;;16.84;48.27
62632;BME280;48703;51.248;-0.546;2023-05-23T12:29:37;102030;;;16.89;49.12
62632;BME280;48703;51.248;-0.546;2023-05-23T12:32:39;102030;;;16.94;48.29
62632;BME280;48703;51.248;-0.546;2023-05-23T12:35:42;102031;;;17.02;48.59
62632;BME280;48703;51.248;-0.546;2023-05-23T12:38:43;102034;;;17.08;48.82
62632;BME280;48703;51.248;-0.546;2023-05-23T12:41:45;102036;;;17.09;48.13
62632;BME280;48703;51.248;-0.546;2023-05-23T12:44:49;102036;;;17.07;48.23
62632;BME280;48703;51.248;-0.546;2023-05-23T12:47:49;102030;;;17.07;48.30
62632;BME280;48703;51.248;-0.546;2023-05-23T12:50:50;102029;;;17.16;49.19
62632;BME280;48703;51.248;-0.546;2023-05-23T12:53:52;102028;;;17.26;48.89
62632;BME280;48703;51.248;-0.546;2023-05-23T12:56:54;102019;;;17.35;47.79
62632;BME280;48703;51.248;-0.546;2023-05-23T12:59:56;102015;;;17.41;47.72
62632;BME280;48703;51.248;-0.546;2023-05-23T13:02:58;102014;;;17.52;47.82
62632;BME280;48703;51.248;-0.546;2023-05-23T13:06:00;102012;;;17.63;48.67
62632;BME280;48703;51.248;-0.546;2023-05-23T13:09:02;102011;;;17.71;48.51
62632;BME280;48703;51.248;-0.546;2023-05-23T13:12:04;102013;;;17.64;47.39
62632;BME280;48703;51.248;-0.546;2023-05-23T13:15:06;102011;;;17.61;48.68
62632;BME280;48703;51.248;-0.546;2023-05-23T13:18:07;102007;;;17.62;48.07
62632;BME280;48703;51.248;-0.546;2023-05-23T13:21:09;102005;;;17.65;48.60
62632;BME280;48703;51.248;-0.546;2023-05-23T13:24:11;102005;;;17.74;47.95
62632;BME280;48703;51.248;-0.546;2023-05-23T13:27:13;102004;;;17.82;48.09
62632;BME280;48703;51.248;-0.546;2023-05-23T13:30:15;102003;;;17.87;48.42
62632;BME280;48703;51.248;-0.546;2023-05-23T13:33:16;102002;;;17.88;47.49
62632;BME280;48703;51.248;-0.546;2023-05-23T13:36:18;101995;;;17.92;48.39
62632;BME280;48703;51.248;-0.546;2023-05-23T13:39:20;101997;;;18.02;48.46
62632;BME280;48703;51.248;-0.546;2023-05-23T13:42:22;101997;;;18.12;48.12
62632;BME280;48703;51.248;-0.546;2023-05-23T13:45:24;102000;;;18.20;47.95
62632;BME280;48703;51.248;-0.546;2023-05-23T13:48:26;102001;;;18.23;47.32
62632;BME280;48703;51.248;-0.546;2023-05-23T13:51:28;101998;;;18.27;47.13
62632;BME280;48703;51.248;-0.546;2023-05-23T13:54:30;101991;;;18.27;46.89
62632;BME280;48703;51.248;-0.546;2023-05-23T13:57:31;101996;;;18.28;47.47
62632;BME280;48703;51.248;-0.546;2023-05-23T14:00:33;102000;;;18.33;47.78
62632;BME280;48703;51.248;-0.546;2023-05-23T14:03:35;101998;;;18.35;47.62
62632;BME280;48703;51.248;-0.546;2023-05-23T14:06:37;101996;;;18.39;46.73
62632;BME280;48703;51.248;-0.546;2023-05-23T14:09:39;101999;;;18.35;46.77
62632;BME280;48703;51.248;-0.546;2023-05-23T14:12:41;101996;;;18.33;47.02
62632;BME280;48703;51.248;-0.546;2023-05-23T14:15:43;101995;;;18.37;47.32
62632;BME280;48703;51.248;-0.546;2023-05-23T14:18:44;101995;;;18.42;47.28
62632;BME280;48703;51.248;-0.546;2023-05-23T14:21:46;101996;;;18.42;47.13
62632;BME280;48703;51.248;-0.546;2023-05-23T14:24:48;102000;;;18.44;46.31
62632;BME280;48703;51.248;-0.546;2023-05-23T14:27:50;102000;;;18.48;47.15
62632;BME280;48703;51.248;-0.546;2023-05-23T14:30:52;101994;;;18.52;47.16
62632;BME280;48703;51.248;-0.546;2023-05-23T14:33:54;101994;;;18.53;46.44
62632;BME280;48703;51.248;-0.546;2023-05-23T14:36:56;101999;;;18.57;45.72
62632;BME280;48703;51.248;-0.546;2023-05-23T14:39:58;101995;;;18.67;45.89
62632;BME280;48703;51.248;-0.546;2023-05-23T14:42:59;101988;;;18.79;46.22
62632;BME280;48703;51.248;-0.546;2023-05-23T14:46:01;101994;;;18.92;46.77
62632;BME280;48703;51.248;-0.546;2023-05-23T14:49:03;101982;;;18.98;46.62
62632;BME280;48703;51.248;-0.546;2023-05-23T14:52:05;101984;;;18.98;46.13
62632;BME280;48703;51.248;-0.546;2023-05-23T14:55:07;101982;;;18.93;46.51
62632;BME280;48703;51.248;-0.546;2023-05-23T14:58:09;101985;;;19.06;46.04
62632;BME280;48703;51.248;-0.546;2023-05-23T15:01:11;101985;;;19.10;45.38
62632;BME280;48703;51.248;-0.546;2023-05-23T15:04:12;101985;;;19.13;45.65
62632;BME280;48703;51.248;-0.546;2023-05-23T15:07:14;101982;;;19.15;44.61
62632;BME280;48703;51.248;-0.546;2023-05-23T15:10:16;101983;;;19.16;45.16
62632;BME280;48703;51.248;-0.546;2023-05-23T15:13:18;101983;;;19.15;45.81
62632;BME280;48703;51.248;-0.546;2023-05-23T15:16:20;101981;;;19.18;45.28
62632;BME280;48703;51.248;-0.546;2023-05-23T15:19:22;101978;;;19.21;45.12
62632;BME280;48703;51.248;-0.546;2023-05-23T15:22:24;101972;;;19.30;44.46
62632;BME280;48703;51.248;-0.546;2023-05-23T15:25:26;101974;;;19.45;44.68
62632;BME280;48703;51.248;-0.546;2023-05-23T15:28:27;101969;;;19.32;44.48
62632;BME280;48703;51.248;-0.546;2023-05-23T15:31:29;101969;;;19.18;44.29
62632;BME280;48703;51.248;-0.546;2023-05-23T15:34:31;101973;;;19.02;44.69
62632;BME280;48703;51.248;-0.546;2023-05-23T15:37:33;101973;;;18.92;45.57
62632;BME280;48703;51.248;-0.546;2023-05-23T15:40:35;101970;;;18.81;45.50
62632;BME280;48703;51.248;-0.546;2023-05-23T15:43:37;101967;;;18.74;45.95
62632;BME280;48703;51.248;-0.546;2023-05-23T15:46:39;101966;;;18.76;46.24
62632;BME280;48703;51.248;-0.546;2023-05-23T15:49:40;101965;;;18.93;47.34
62632;BME280;48703;51.248;-0.546;2023-05-23T15:52:42;101965;;;19.09;45.73
62632;BME280;48703;51.248;-0.546;2023-05-23T15:55:44;101966;;;19.27;45.90
62632;BME280;48703;51.248;-0.546;2023-05-23T15:58:46;101966;;;19.36;45.18
62632;BME280;48703;51.248;-0.546;2023-05-23T16:01:48;101964;;;19.35;46.13
62632;BME280;48703;51.248;-0.546;2023-05-23T16:04:50;101963;;;19.30;45.88
62632;BME280;48703;51.248;-0.546;2023-05-23T16:07:52;101963;;;19.18;45.31
62632;BME280;48703;51.248;-0.546;2023-05-23T16:10:53;101968;;;19.09;45.20
62632;BME280;48703;51.248;-0.546;2023-05-23T16:13:55;101972;;;19.03;46.11
62632;BME280;48703;51.248;-0.546;2023-05-23T16:16:57;101974;;;19.11;45.98